sensor_id;sensor_type;location;lat;lon;timestamp;P1;durP1;ratioP1;P2;durP2;ratioP2
63378;SDS011;49509;54.996;73.270;2022-10-16T00:01:15;15.25;;;10.75;;
63378;SDS011;49509;54.996;73.270;2022-10-16T00:03:42;20.75;;;17.75;;
63378;SDS011;49509;54.996;73.270;2022-10-16T00:06:17;19.50;;;18.00;;
63378;SDS011;49509;54.996;73.270;2022-10-16T00:08:44;22.00;;;18.25;;
63378;SDS011;49509;54.996;73.270;2022-10-16T00:11:12;19.50;;;19.50;;
63378;SDS011;49509;54.996;73.270;2022-10-16T00:13:41;18.50;;;18.00;;
63378;SDS011;49509;54.996;73.270;2022-10-16T00:16:16;15.00;;;14.00;;
63378;SDS011;49509;54.996;73.270;2022-10-16T00:18:43;20.75;;;17.75;;
63378;SDS011;49509;54.996;73.270;2022-10-16T00:21:11;23.00;;;19.75;;
63378;SDS011;49509;54.996;73.270;2022-10-16T00:24:03;18.75;;;18.50;;
63378;SDS011;49509;54.996;73.270;2022-10-16T00:26:31;20.00;;;18.75;;
63378;SDS011;49509;54.996;73.270;2022-10-16T00:28:57;19.50;;;17.75;;
63378;SDS011;49509;54.996;73.270;2022-10-16T00:31:24;22.25;;;18.25;;
63378;SDS011;49509;54.996;73.270;2022-10-16T00:33:50;20.25;;;19.50;;
63378;SDS011;49509;54.996;73.270;2022-10-16T00:36:19;23.50;;;21.75;;
63378;SDS011;49509;54.996;73.270;2022-10-16T00:38:46;21.50;;;19.00;;
63378;SDS011;49509;54.996;73.270;2022-10-16T00:41:14;15.50;;;14.25;;
63378;SDS011;49509;54.996;73.270;2022-10-16T00:46:13;20.25;;;19.50;;
63378;SDS011;49509;54.996;73.270;2022-10-16T00:48:42;21.75;;;21.75;;
63378;SDS011;49509;54.996;73.270;2022-10-16T00:51:09;28.75;;;24.50;;
63378;SDS011;49509;54.996;73.270;2022-10-16T00:53:35;26.00;;;25.00;;
63378;SDS011;49509;54.996;73.270;2022-10-16T00:56:02;27.25;;;24.25;;
63378;SDS011;49509;54.996;73.270;2022-10-16T00:58:39;29.00;;;26.00;;
63378;SDS011;49509;54.996;73.270;2022-10-16T01:01:15;21.75;;;20.75;;
63378;SDS011;49509;54.996;73.270;2022-10-16T01:03:42;30.00;;;21.50;;
63378;SDS011;49509;54.996;73.270;2022-10-16T01:06:28;24.75;;;23.50;;
63378;SDS011;49509;54.996;73.270;2022-10-16T01:12:01;18.50;;;15.00;;
63378;SDS011;49509;54.996;73.270;2022-10-16T01:14:36;20.75;;;18.50;;
63378;SDS011;49509;54.996;73.270;2022-10-16T01:17:13;24.67;;;22.67;;
63378;SDS011;49509;54.996;73.270;2022-10-16T01:19:50;24.50;;;20.75;;
63378;SDS011;49509;54.996;73.270;2022-10-16T01:22:19;21.50;;;21.25;;
63378;SDS011;49509;54.996;73.270;2022-10-16T01:24:47;26.25;;;24.25;;
63378;SDS011;49509;54.996;73.270;2022-10-16T01:32:23;20.75;;;19.75;;
63378;SDS011;49509;54.996;73.270;2022-10-16T01:34:51;17.75;;;17.50;;
63378;SDS011;49509;54.996;73.270;2022-10-16T01:37:23;19.75;;;19.00;;
63378;SDS011;49509;54.996;73.270;2022-10-16T01:39:53;22.75;;;19.25;;
63378;SDS011;49509;54.996;73.270;2022-10-16T01:42:22;29.00;;;26.00;;
63378;SDS011;49509;54.996;73.270;2022-10-16T01:44:50;26.00;;;23.25;;
63378;SDS011;49509;54.996;73.270;2022-10-16T01:47:18;16.50;;;15.00;;
63378;SDS011;49509;54.996;73.270;2022-10-16T01:49:48;20.25;;;17.25;;
63378;SDS011;49509;54.996;73.270;2022-10-16T01:52:16;19.50;;;17.75;;
63378;SDS011;49509;54.996;73.270;2022-10-16T01:54:44;18.00;;;18.00;;
63378;SDS011;49509;54.996;73.270;2022-10-16T01:57:12;19.25;;;18.50;;
63378;SDS011;49509;54.996;73.270;2022-10-16T01:59:48;23.00;;;20.50;;
63378;SDS011;49509;54.996;73.270;2022-10-16T02:02:17;23.50;;;20.75;;
63378;SDS011;49509;54.996;73.270;2022-10-16T02:04:48;19.50;;;17.75;;
63378;SDS011;49509;54.996;73.270;2022-10-16T02:07:16;24.75;;;19.50;;
63378;SDS011;49509;54.996;73.270;2022-10-16T02:09:42;15.25;;;13.75;;
63378;SDS011;49509;54.996;73.270;2022-10-16T02:12:13;11.00;;;9.00;;
63378;SDS011;49509;54.996;73.270;2022-10-16T02:14:41;15.00;;;13.50;;
63378;SDS011;49509;54.996;73.270;2022-10-16T02:17:12;25.50;;;20.50;;
63378;SDS011;49509;54.996;73.270;2022-10-16T02:19:38;12.75;;;12.75;;
63378;SDS011;49509;54.996;73.270;2022-10-16T02:22:05;13.75;;;13.25;;
63378;SDS011;49509;54.996;73.270;2022-10-16T02:24:43;20.25;;;17.50;;
63378;SDS011;49509;54.996;73.270;2022-10-16T02:30:13;18.75;;;18.25;;
63378;SDS011;49509;54.996;73.270;2022-10-16T02:32:40;37.50;;;33.25;;
63378;SDS011;49509;54.996;73.270;2022-10-16T02:35:08;35.75;;;30.75;;
63378;SDS011;49509;54.996;73.270;2022-10-16T02:37:35;27.75;;;25.75;;
63378;SDS011;49509;54.996;73.270;2022-10-16T02:40:02;31.00;;;29.25;;
63378;SDS011;49509;54.996;73.270;2022-10-16T02:42:37;32.25;;;29.25;;
63378;SDS011;49509;54.996;73.270;2022-10-16T02:45:04;40.25;;;34.25;;
63378;SDS011;49509;54.996;73.270;2022-10-16T02:47:31;36.00;;;32.25;;
63378;SDS011;49509;54.996;73.270;2022-10-16T02:49:57;41.50;;;35.25;;
63378;SDS011;49509;54.996;73.270;2022-10-16T02:52:23;41.75;;;36.50;;
63378;SDS011;49509;54.996;73.270;2022-10-16T02:54:50;40.00;;;34.00;;
63378;SDS011;49509;54.996;73.270;2022-10-16T02:57:16;39.00;;;34.50;;
63378;SDS011;49509;54.996;73.270;2022-10-16T02:59:43;47.20;;;41.40;;
63378;SDS011;49509;54.996;73.270;2022-10-16T03:02:09;46.75;;;36.50;;
63378;SDS011;49509;54.996;73.270;2022-10-16T03:04:36;58.20;;;46.00;;
63378;SDS011;49509;54.996;73.270;2022-10-16T03:07:03;53.80;;;44.00;;
63378;SDS011;49509;54.996;73.270;2022-10-16T03:09:29;54.00;;;43.60;;
63378;SDS011;49509;54.996;73.270;2022-10-16T03:11:55;47.80;;;41.20;;
63378;SDS011;49509;54.996;73.270;2022-10-16T03:14:22;41.75;;;35.00;;
63378;SDS011;49509;54.996;73.270;2022-10-16T03:16:48;44.75;;;39.00;;
63378;SDS011;49509;54.996;73.270;2022-10-16T03:19:16;46.25;;;39.25;;
63378;SDS011;49509;54.996;73.270;2022-10-16T03:21:42;43.75;;;37.00;;
63378;SDS011;49509;54.996;73.270;2022-10-16T03:24:09;49.25;;;41.75;;
63378;SDS011;49509;54.996;73.270;2022-10-16T03:26:35;40.25;;;36.00;;
63378;SDS011;49509;54.996;73.270;2022-10-16T03:29:01;51.75;;;42.50;;
63378;SDS011;49509;54.996;73.270;2022-10-16T03:31:29;48.25;;;39.50;;
63378;SDS011;49509;54.996;73.270;2022-10-16T03:33:56;43.25;;;36.75;;
63378;SDS011;49509;54.996;73.270;2022-10-16T03:36:27;53.75;;;42.00;;
63378;SDS011;49509;54.996;73.270;2022-10-16T03:38:53;51.50;;;42.25;;
63378;SDS011;49509;54.996;73.270;2022-10-16T03:41:19;43.75;;;37.00;;
63378;SDS011;49509;54.996;73.270;2022-10-16T03:43:46;61.40;;;47.80;;
63378;SDS011;49509;54.996;73.270;2022-10-16T03:46:15;54.20;;;45.60;;
63378;SDS011;49509;54.996;73.270;2022-10-16T03:48:41;53.60;;;42.60;;
63378;SDS011;49509;54.996;73.270;2022-10-16T03:51:07;50.25;;;37.50;;
63378;SDS011;49509;54.996;73.270;2022-10-16T03:53:34;46.50;;;37.25;;
63378;SDS011;49509;54.996;73.270;2022-10-16T03:56:03;42.50;;;36.75;;
63378;SDS011;49509;54.996;73.270;2022-10-16T03:58:30;35.50;;;32.00;;
63378;SDS011;49509;54.996;73.270;2022-10-16T04:00:56;38.75;;;33.75;;
63378;SDS011;49509;54.996;73.270;2022-10-16T04:03:22;37.50;;;34.75;;
63378;SDS011;49509;54.996;73.270;2022-10-16T04:05:49;39.75;;;33.50;;
63378;SDS011;49509;54.996;73.270;2022-10-16T04:08:16;42.25;;;33.00;;
63378;SDS011;49509;54.996;73.270;2022-10-16T04:10:42;46.25;;;38.75;;
63378;SDS011;49509;54.996;73.270;2022-10-16T04:13:09;43.00;;;37.50;;
63378;SDS011;49509;54.996;73.270;2022-10-16T04:15:36;46.00;;;38.25;;
63378;SDS011;49509;54.996;73.270;2022-10-16T04:18:07;46.50;;;38.75;;
63378;SDS011;49509;54.996;73.270;2022-10-16T04:20:34;47.75;;;39.75;;
63378;SDS011;49509;54.996;73.270;2022-10-16T04:23:00;50.00;;;41.25;;
63378;SDS011;49509;54.996;73.270;2022-10-16T04:25:26;45.75;;;38.00;;
63378;SDS011;49509;54.996;73.270;2022-10-16T04:27:53;45.75;;;37.00;;
63378;SDS011;49509;54.996;73.270;2022-10-16T04:30:20;47.75;;;39.25;;
63378;SDS011;49509;54.996;73.270;2022-10-16T04:32:50;46.50;;;38.00;;
63378;SDS011;49509;54.996;73.270;2022-10-16T04:35:17;48.00;;;39.50;;
63378;SDS011;49509;54.996;73.270;2022-10-16T04:37:43;49.00;;;39.50;;
63378;SDS011;49509;54.996;73.270;2022-10-16T04:40:09;47.25;;;40.25;;
63378;SDS011;49509;54.996;73.270;2022-10-16T04:42:46;43.50;;;36.00;;
63378;SDS011;49509;54.996;73.270;2022-10-16T04:45:13;49.25;;;40.75;;
63378;SDS011;49509;54.996;73.270;2022-10-16T04:47:39;44.50;;;36.00;;
63378;SDS011;49509;54.996;73.270;2022-10-16T04:50:05;47.00;;;38.25;;
63378;SDS011;49509;54.996;73.270;2022-10-16T04:52:32;50.00;;;40.75;;
63378;SDS011;49509;54.996;73.270;2022-10-16T04:55:00;50.00;;;40.00;;
63378;SDS011;49509;54.996;73.270;2022-10-16T04:57:29;54.00;;;44.00;;
63378;SDS011;49509;54.996;73.270;2022-10-16T04:59:56;47.60;;;38.40;;
63378;SDS011;49509;54.996;73.270;2022-10-16T05:02:22;52.40;;;43.40;;
63378;SDS011;49509;54.996;73.270;2022-10-16T05:04:59;49.75;;;40.50;;
63378;SDS011;49509;54.996;73.270;2022-10-16T05:07:25;51.50;;;41.00;;
63378;SDS011;49509;54.996;73.270;2022-10-16T05:09:52;45.00;;;38.00;;
63378;SDS011;49509;54.996;73.270;2022-10-16T05:12:19;47.50;;;38.75;;
63378;SDS011;49509;54.996;73.270;2022-10-16T05:14:50;49.25;;;41.75;;
63378;SDS011;49509;54.996;73.270;2022-10-16T05:17:17;45.50;;;38.00;;
63378;SDS011;49509;54.996;73.270;2022-10-16T05:19:43;46.00;;;38.75;;
63378;SDS011;49509;54.996;73.270;2022-10-16T05:22:10;49.25;;;41.50;;
63378;SDS011;49509;54.996;73.270;2022-10-16T05:24:36;45.25;;;38.75;;
63378;SDS011;49509;54.996;73.270;2022-10-16T05:27:02;45.75;;;38.25;;
63378;SDS011;49509;54.996;73.270;2022-10-16T05:29:32;43.50;;;37.25;;
63378;SDS011;49509;54.996;73.270;2022-10-16T05:32:08;47.50;;;38.25;;
63378;SDS011;49509;54.996;73.270;2022-10-16T05:34:34;47.25;;;38.75;;
63378;SDS011;49509;54.996;73.270;2022-10-16T05:37:01;42.75;;;35.50;;
63378;SDS011;49509;54.996;73.270;2022-10-16T05:39:27;43.25;;;34.25;;
63378;SDS011;49509;54.996;73.270;2022-10-16T05:42:04;29.25;;;25.00;;
63378;SDS011;49509;54.996;73.270;2022-10-16T05:44:31;26.75;;;26.00;;
63378;SDS011;49509;54.996;73.270;2022-10-16T05:46:57;23.00;;;22.00;;
63378;SDS011;49509;54.996;73.270;2022-10-16T05:49:24;28.33;;;26.00;;
63378;SDS011;49509;54.996;73.270;2022-10-16T05:51:50;25.75;;;23.25;;
63378;SDS011;49509;54.996;73.270;2022-10-16T05:54:16;23.00;;;22.50;;
63378;SDS011;49509;54.996;73.270;2022-10-16T05:56:43;21.50;;;18.25;;
63378;SDS011;49509;54.996;73.270;2022-10-16T05:59:09;18.50;;;18.25;;
63378;SDS011;49509;54.996;73.270;2022-10-16T06:01:35;17.25;;;16.50;;
63378;SDS011;49509;54.996;73.270;2022-10-16T06:04:02;12.50;;;11.25;;
63378;SDS011;49509;54.996;73.270;2022-10-16T06:06:28;16.50;;;14.75;;
63378;SDS011;49509;54.996;73.270;2022-10-16T06:08:55;15.25;;;14.25;;
63378;SDS011;49509;54.996;73.270;2022-10-16T06:11:26;13.50;;;13.50;;
63378;SDS011;49509;54.996;73.270;2022-10-16T06:13:53;12.75;;;11.75;;
63378;SDS011;49509;54.996;73.270;2022-10-16T06:16:26;12.25;;;11.00;;
63378;SDS011;49509;54.996;73.270;2022-10-16T06:18:53;11.25;;;10.75;;
63378;SDS011;49509;54.996;73.270;2022-10-16T06:21:29;14.75;;;14.75;;
63378;SDS011;49509;54.996;73.270;2022-10-16T06:23:56;16.00;;;15.00;;
63378;SDS011;49509;54.996;73.270;2022-10-16T06:26:24;15.00;;;14.50;;
63378;SDS011;49509;54.996;73.270;2022-10-16T06:28:51;17.25;;;16.25;;
63378;SDS011;49509;54.996;73.270;2022-10-16T06:31:37;13.75;;;11.50;;
63378;SDS011;49509;54.996;73.270;2022-10-16T06:34:10;13.50;;;13.25;;
63378;SDS011;49509;54.996;73.270;2022-10-16T06:36:46;14.50;;;14.50;;
63378;SDS011;49509;54.996;73.270;2022-10-16T06:39:33;16.25;;;16.25;;
63378;SDS011;49509;54.996;73.270;2022-10-16T06:42:05;17.25;;;15.00;;
63378;SDS011;49509;54.996;73.270;2022-10-16T06:44:46;19.50;;;15.25;;
63378;SDS011;49509;54.996;73.270;2022-10-16T06:47:13;15.50;;;13.75;;
63378;SDS011;49509;54.996;73.270;2022-10-16T06:49:45;16.50;;;13.25;;
63378;SDS011;49509;54.996;73.270;2022-10-16T06:52:11;14.75;;;12.75;;
63378;SDS011;49509;54.996;73.270;2022-10-16T06:54:42;15.75;;;14.50;;
63378;SDS011;49509;54.996;73.270;2022-10-16T06:57:09;13.50;;;13.50;;
63378;SDS011;49509;54.996;73.270;2022-10-16T06:59:35;12.75;;;12.75;;
63378;SDS011;49509;54.996;73.270;2022-10-16T07:02:01;14.00;;;13.75;;
63378;SDS011;49509;54.996;73.270;2022-10-16T07:04:33;13.50;;;12.25;;
63378;SDS011;49509;54.996;73.270;2022-10-16T07:07:00;12.25;;;12.00;;
63378;SDS011;49509;54.996;73.270;2022-10-16T07:09:27;14.75;;;13.00;;
63378;SDS011;49509;54.996;73.270;2022-10-16T07:12:00;14.50;;;14.50;;
63378;SDS011;49509;54.996;73.270;2022-10-16T07:14:27;13.00;;;10.50;;
63378;SDS011;49509;54.996;73.270;2022-10-16T07:16:53;12.50;;;12.50;;
63378;SDS011;49509;54.996;73.270;2022-10-16T07:19:20;10.50;;;10.50;;
63378;SDS011;49509;54.996;73.270;2022-10-16T07:21:46;11.00;;;11.00;;
63378;SDS011;49509;54.996;73.270;2022-10-16T07:24:14;11.75;;;10.75;;
63378;SDS011;49509;54.996;73.270;2022-10-16T07:26:41;13.75;;;12.00;;
63378;SDS011;49509;54.996;73.270;2022-10-16T07:29:15;14.00;;;11.00;;
63378;SDS011;49509;54.996;73.270;2022-10-16T07:31:42;11.50;;;11.50;;
63378;SDS011;49509;54.996;73.270;2022-10-16T07:34:09;13.50;;;12.50;;
63378;SDS011;49509;54.996;73.270;2022-10-16T07:36:36;13.75;;;13.75;;
63378;SDS011;49509;54.996;73.270;2022-10-16T07:39:03;11.50;;;11.50;;
63378;SDS011;49509;54.996;73.270;2022-10-16T07:41:29;12.50;;;11.75;;
63378;SDS011;49509;54.996;73.270;2022-10-16T07:43:59;9.00;;;8.00;;
63378;SDS011;49509;54.996;73.270;2022-10-16T07:46:26;12.75;;;12.75;;
63378;SDS011;49509;54.996;73.270;2022-10-16T07:48:54;11.50;;;11.50;;
63378;SDS011;49509;54.996;73.270;2022-10-16T07:51:21;14.25;;;12.00;;
63378;SDS011;49509;54.996;73.270;2022-10-16T07:53:51;13.25;;;11.75;;
63378;SDS011;49509;54.996;73.270;2022-10-16T07:56:18;14.25;;;11.25;;
63378;SDS011;49509;54.996;73.270;2022-10-16T07:58:45;12.50;;;11.50;;
63378;SDS011;49509;54.996;73.270;2022-10-16T08:01:13;10.25;;;10.25;;
63378;SDS011;49509;54.996;73.270;2022-10-16T08:03:46;11.80;;;10.80;;
63378;SDS011;49509;54.996;73.270;2022-10-16T08:06:14;12.60;;;11.60;;
63378;SDS011;49509;54.996;73.270;2022-10-16T08:08:41;10.50;;;10.25;;
63378;SDS011;49509;54.996;73.270;2022-10-16T08:11:08;9.25;;;9.00;;
63378;SDS011;49509;54.996;73.270;2022-10-16T08:13:36;11.00;;;11.00;;
63378;SDS011;49509;54.996;73.270;2022-10-16T08:16:03;10.00;;;8.80;;
63378;SDS011;49509;54.996;73.270;2022-10-16T08:18:34;10.60;;;10.60;;
63378;SDS011;49509;54.996;73.270;2022-10-16T08:21:01;12.40;;;11.00;;
63378;SDS011;49509;54.996;73.270;2022-10-16T08:23:28;10.75;;;10.75;;
63378;SDS011;49509;54.996;73.270;2022-10-16T08:25:54;14.25;;;14.25;;
63378;SDS011;49509;54.996;73.270;2022-10-16T08:28:21;15.00;;;12.60;;
63378;SDS011;49509;54.996;73.270;2022-10-16T08:30:48;15.25;;;13.25;;
63378;SDS011;49509;54.996;73.270;2022-10-16T08:33:14;13.40;;;11.80;;
63378;SDS011;49509;54.996;73.270;2022-10-16T08:35:41;15.25;;;12.50;;
63378;SDS011;49509;54.996;73.270;2022-10-16T08:38:07;15.00;;;14.00;;
63378;SDS011;49509;54.996;73.270;2022-10-16T08:40:34;13.75;;;13.75;;
63378;SDS011;49509;54.996;73.270;2022-10-16T08:43:06;17.75;;;17.50;;
63378;SDS011;49509;54.996;73.270;2022-10-16T08:48:08;15.50;;;15.00;;
63378;SDS011;49509;54.996;73.270;2022-10-16T08:50:47;14.00;;;12.75;;
63378;SDS011;49509;54.996;73.270;2022-10-16T08:53:20;16.75;;;14.00;;
63378;SDS011;49509;54.996;73.270;2022-10-16T08:55:50;18.25;;;16.50;;
63378;SDS011;49509;54.996;73.270;2022-10-16T09:00:47;22.50;;;20.00;;
63378;SDS011;49509;54.996;73.270;2022-10-16T09:11:03;10.50;;;10.00;;
63378;SDS011;49509;54.996;73.270;2022-10-16T09:13:49;15.50;;;14.50;;
63378;SDS011;49509;54.996;73.270;2022-10-16T09:19:27;10.75;;;10.50;;
63378;SDS011;49509;54.996;73.270;2022-10-16T09:21:57;9.25;;;9.00;;
63378;SDS011;49509;54.996;73.270;2022-10-16T09:24:30;9.20;;;7.40;;
63378;SDS011;49509;54.996;73.270;2022-10-16T09:26:56;10.00;;;9.20;;
63378;SDS011;49509;54.996;73.270;2022-10-16T09:29:23;9.60;;;8.60;;
63378;SDS011;49509;54.996;73.270;2022-10-16T09:31:51;10.40;;;10.00;;
63378;SDS011;49509;54.996;73.270;2022-10-16T09:36:48;7.80;;;7.80;;
63378;SDS011;49509;54.996;73.270;2022-10-16T09:39:22;12.75;;;11.75;;
63378;SDS011;49509;54.996;73.270;2022-10-16T09:41:48;10.40;;;8.60;;
63378;SDS011;49509;54.996;73.270;2022-10-16T09:44:26;11.25;;;11.25;;
63378;SDS011;49509;54.996;73.270;2022-10-16T09:47:00;7.75;;;7.50;;
63378;SDS011;49509;54.996;73.270;2022-10-16T09:49:27;8.00;;;7.25;;
63378;SDS011;49509;54.996;73.270;2022-10-16T09:52:03;10.25;;;10.25;;
63378;SDS011;49509;54.996;73.270;2022-10-16T09:54:31;14.25;;;13.75;;
63378;SDS011;49509;54.996;73.270;2022-10-16T09:57:04;15.75;;;15.25;;
63378;SDS011;49509;54.996;73.270;2022-10-16T09:59:31;15.00;;;14.50;;
63378;SDS011;49509;54.996;73.270;2022-10-16T10:02:00;13.50;;;13.50;;
63378;SDS011;49509;54.996;73.270;2022-10-16T10:04:37;11.00;;;10.25;;
63378;SDS011;49509;54.996;73.270;2022-10-16T10:07:05;13.25;;;11.75;;
63378;SDS011;49509;54.996;73.270;2022-10-16T10:09:32;10.00;;;8.50;;
63378;SDS011;49509;54.996;73.270;2022-10-16T10:12:01;10.75;;;9.50;;
63378;SDS011;49509;54.996;73.270;2022-10-16T10:14:31;13.50;;;12.50;;
63378;SDS011;49509;54.996;73.270;2022-10-16T10:19:28;13.25;;;12.00;;
63378;SDS011;49509;54.996;73.270;2022-10-16T10:21:55;9.50;;;8.50;;
63378;SDS011;49509;54.996;73.270;2022-10-16T10:24:32;14.00;;;14.00;;
63378;SDS011;49509;54.996;73.270;2022-10-16T10:27:10;11.67;;;11.00;;
63378;SDS011;49509;54.996;73.270;2022-10-16T10:32:46;12.00;;;11.25;;
63378;SDS011;49509;54.996;73.270;2022-10-16T10:35:13;15.75;;;15.00;;
63378;SDS011;49509;54.996;73.270;2022-10-16T10:38:00;13.75;;;13.25;;
63378;SDS011;49509;54.996;73.270;2022-10-16T10:46:03;11.75;;;11.00;;
63378;SDS011;49509;54.996;73.270;2022-10-16T11:07:09;23.00;;;21.25;;
63378;SDS011;49509;54.996;73.270;2022-10-16T11:09:46;16.50;;;16.50;;
63378;SDS011;49509;54.996;73.270;2022-10-16T11:12:18;15.00;;;13.25;;
63378;SDS011;49509;54.996;73.270;2022-10-16T11:14:55;15.50;;;15.25;;
63378;SDS011;49509;54.996;73.270;2022-10-16T11:17:25;17.75;;;17.25;;
63378;SDS011;49509;54.996;73.270;2022-10-16T11:19:58;20.75;;;18.00;;
63378;SDS011;49509;54.996;73.270;2022-10-16T11:22:31;17.75;;;15.75;;
63378;SDS011;49509;54.996;73.270;2022-10-16T11:25:12;20.25;;;18.00;;
63378;SDS011;49509;54.996;73.270;2022-10-16T11:27:40;19.00;;;17.50;;
63378;SDS011;49509;54.996;73.270;2022-10-16T11:30:19;23.25;;;21.00;;
63378;SDS011;49509;54.996;73.270;2022-10-16T11:35:38;29.00;;;26.25;;
63378;SDS011;49509;54.996;73.270;2022-10-16T11:41:02;22.75;;;21.50;;
63378;SDS011;49509;54.996;73.270;2022-10-16T11:43:37;18.00;;;18.00;;
63378;SDS011;49509;54.996;73.270;2022-10-16T11:46:08;17.00;;;15.25;;
63378;SDS011;49509;54.996;73.270;2022-10-16T11:51:19;18.50;;;17.75;;
63378;SDS011;49509;54.996;73.270;2022-10-16T11:56:26;16.50;;;16.50;;
63378;SDS011;49509;54.996;73.270;2022-10-16T11:59:08;17.50;;;14.50;;
63378;SDS011;49509;54.996;73.270;2022-10-16T12:01:42;10.25;;;9.75;;
63378;SDS011;49509;54.996;73.270;2022-10-16T12:04:22;12.50;;;11.75;;
63378;SDS011;49509;54.996;73.270;2022-10-16T12:09:22;9.25;;;9.00;;
63378;SDS011;49509;54.996;73.270;2022-10-16T12:11:52;10.50;;;9.25;;
63378;SDS011;49509;54.996;73.270;2022-10-16T12:14:21;8.50;;;8.50;;
63378;SDS011;49509;54.996;73.270;2022-10-16T12:16:54;11.00;;;11.00;;
63378;SDS011;49509;54.996;73.270;2022-10-16T12:19:23;13.00;;;10.50;;
63378;SDS011;49509;54.996;73.270;2022-10-16T12:21:51;11.00;;;10.50;;
63378;SDS011;49509;54.996;73.270;2022-10-16T12:24:22;12.50;;;11.50;;
63378;SDS011;49509;54.996;73.270;2022-10-16T12:26:53;10.50;;;10.50;;
63378;SDS011;49509;54.996;73.270;2022-10-16T12:31:57;9.25;;;9.25;;
63378;SDS011;49509;54.996;73.270;2022-10-16T12:34:57;10.50;;;10.50;;
63378;SDS011;49509;54.996;73.270;2022-10-16T12:37:23;10.00;;;8.50;;
63378;SDS011;49509;54.996;73.270;2022-10-16T12:39:54;14.00;;;11.75;;
63378;SDS011;49509;54.996;73.270;2022-10-16T12:42:23;10.50;;;9.00;;
63378;SDS011;49509;54.996;73.270;2022-10-16T12:44:50;14.25;;;14.25;;
63378;SDS011;49509;54.996;73.270;2022-10-16T12:47:36;16.00;;;13.00;;
63378;SDS011;49509;54.996;73.270;2022-10-16T12:50:02;12.25;;;12.00;;
63378;SDS011;49509;54.996;73.270;2022-10-16T12:55:15;9.50;;;9.25;;
63378;SDS011;49509;54.996;73.270;2022-10-16T13:03:01;16.50;;;14.75;;
63378;SDS011;49509;54.996;73.270;2022-10-16T13:23:36;50.00;;;41.25;;
63378;SDS011;49509;54.996;73.270;2022-10-16T13:28:34;49.00;;;40.00;;
63378;SDS011;49509;54.996;73.270;2022-10-16T13:31:11;50.25;;;39.75;;
63378;SDS011;49509;54.996;73.270;2022-10-16T13:33:41;39.00;;;32.25;;
63378;SDS011;49509;54.996;73.270;2022-10-16T13:36:23;38.25;;;34.00;;
63378;SDS011;49509;54.996;73.270;2022-10-16T13:39:06;39.75;;;35.25;;
63378;SDS011;49509;54.996;73.270;2022-10-16T13:41:36;44.75;;;38.25;;
63378;SDS011;49509;54.996;73.270;2022-10-16T13:44:11;50.25;;;39.75;;
63378;SDS011;49509;54.996;73.270;2022-10-16T13:46:39;50.50;;;42.25;;
63378;SDS011;49509;54.996;73.270;2022-10-16T13:49:12;44.75;;;37.75;;
63378;SDS011;49509;54.996;73.270;2022-10-16T13:51:39;51.50;;;42.50;;
63378;SDS011;49509;54.996;73.270;2022-10-16T13:54:07;49.75;;;38.75;;
63378;SDS011;49509;54.996;73.270;2022-10-16T13:56:35;47.75;;;39.25;;
63378;SDS011;49509;54.996;73.270;2022-10-16T13:59:02;38.00;;;33.00;;
63378;SDS011;49509;54.996;73.270;2022-10-16T14:01:30;40.25;;;35.00;;
63378;SDS011;49509;54.996;73.270;2022-10-16T14:04:05;46.25;;;39.75;;
63378;SDS011;49509;54.996;73.270;2022-10-16T14:06:34;38.75;;;34.50;;
63378;SDS011;49509;54.996;73.270;2022-10-16T14:09:05;36.25;;;31.75;;
63378;SDS011;49509;54.996;73.270;2022-10-16T14:11:32;39.75;;;35.75;;
63378;SDS011;49509;54.996;73.270;2022-10-16T14:13:59;41.00;;;34.00;;
63378;SDS011;49509;54.996;73.270;2022-10-16T14:16:29;31.75;;;30.50;;
63378;SDS011;49509;54.996;73.270;2022-10-16T14:19:00;39.75;;;34.00;;
63378;SDS011;49509;54.996;73.270;2022-10-16T14:21:27;34.50;;;31.00;;
63378;SDS011;49509;54.996;73.270;2022-10-16T14:24:10;30.25;;;29.75;;
63378;SDS011;49509;54.996;73.270;2022-10-16T14:26:40;34.50;;;32.50;;
63378;SDS011;49509;54.996;73.270;2022-10-16T14:29:11;35.75;;;32.25;;
63378;SDS011;49509;54.996;73.270;2022-10-16T14:31:53;46.75;;;39.00;;
63378;SDS011;49509;54.996;73.270;2022-10-16T14:34:30;35.25;;;33.25;;
63378;SDS011;49509;54.996;73.270;2022-10-16T14:36:59;41.25;;;36.25;;
63378;SDS011;49509;54.996;73.270;2022-10-16T14:39:28;29.00;;;29.00;;
63378;SDS011;49509;54.996;73.270;2022-10-16T14:41:55;28.75;;;28.50;;
63378;SDS011;49509;54.996;73.270;2022-10-16T14:44:33;33.75;;;31.00;;
63378;SDS011;49509;54.996;73.270;2022-10-16T14:47:06;30.25;;;29.25;;
63378;SDS011;49509;54.996;73.270;2022-10-16T14:49:39;27.25;;;25.00;;
63378;SDS011;49509;54.996;73.270;2022-10-16T14:52:10;33.00;;;29.50;;
63378;SDS011;49509;54.996;73.270;2022-10-16T14:54:36;26.50;;;24.50;;
63378;SDS011;49509;54.996;73.270;2022-10-16T14:57:03;36.25;;;30.00;;
63378;SDS011;49509;54.996;73.270;2022-10-16T14:59:37;47.50;;;37.75;;
63378;SDS011;49509;54.996;73.270;2022-10-16T15:04:49;63.60;;;50.00;;
63378;SDS011;49509;54.996;73.270;2022-10-16T15:07:15;56.20;;;46.00;;
63378;SDS011;49509;54.996;73.270;2022-10-16T15:09:41;67.20;;;51.80;;
63378;SDS011;49509;54.996;73.270;2022-10-16T15:12:13;65.20;;;52.00;;
63378;SDS011;49509;54.996;73.270;2022-10-16T15:14:40;68.60;;;54.40;;
63378;SDS011;49509;54.996;73.270;2022-10-16T15:17:08;66.20;;;52.40;;
63378;SDS011;49509;54.996;73.270;2022-10-16T15:19:35;65.60;;;52.00;;
63378;SDS011;49509;54.996;73.270;2022-10-16T15:22:02;65.80;;;52.40;;
63378;SDS011;49509;54.996;73.270;2022-10-16T15:24:28;65.80;;;52.60;;
63378;SDS011;49509;54.996;73.270;2022-10-16T15:26:54;64.80;;;51.40;;
63378;SDS011;49509;54.996;73.270;2022-10-16T15:29:21;67.20;;;52.40;;
63378;SDS011;49509;54.996;73.270;2022-10-16T15:31:47;60.80;;;47.40;;
63378;SDS011;49509;54.996;73.270;2022-10-16T15:34:14;66.60;;;52.20;;
63378;SDS011;49509;54.996;73.270;2022-10-16T15:36:46;67.40;;;52.80;;
63378;SDS011;49509;54.996;73.270;2022-10-16T15:39:17;64.80;;;50.40;;
63378;SDS011;49509;54.996;73.270;2022-10-16T15:41:44;62.60;;;49.80;;
63378;SDS011;49509;54.996;73.270;2022-10-16T15:44:10;59.80;;;47.00;;
63378;SDS011;49509;54.996;73.270;2022-10-16T15:46:37;58.80;;;48.20;;
63378;SDS011;49509;54.996;73.270;2022-10-16T15:49:08;61.60;;;49.80;;
63378;SDS011;49509;54.996;73.270;2022-10-16T15:51:38;64.80;;;51.00;;
63378;SDS011;49509;54.996;73.270;2022-10-16T15:54:05;64.20;;;48.80;;
63378;SDS011;49509;54.996;73.270;2022-10-16T15:56:32;59.00;;;48.00;;
63378;SDS011;49509;54.996;73.270;2022-10-16T15:58:59;63.00;;;49.00;;
63378;SDS011;49509;54.996;73.270;2022-10-16T16:01:31;58.20;;;46.20;;
63378;SDS011;49509;54.996;73.270;2022-10-16T16:03:57;58.60;;;48.80;;
63378;SDS011;49509;54.996;73.270;2022-10-16T16:06:24;55.60;;;45.20;;
63378;SDS011;49509;54.996;73.270;2022-10-16T16:08:50;54.20;;;43.60;;
63378;SDS011;49509;54.996;73.270;2022-10-16T16:11:19;50.60;;;41.40;;
63378;SDS011;49509;54.996;73.270;2022-10-16T16:13:46;49.60;;;40.80;;